Time;durP1;ratioP1;P1;durP2;ratioP2;P2;SDS_P1;SDS_P2;PMS_P1;PMS_P2;Temp;Humidity;BMP_temperature;BMP_pressure;BME280_temperature;BME280_humidity;BME280_pressure;Samples;Min_cycle;Max_cycle;Signal;HPM_P1;HPM_P2
2022/07/20 00:01:02;;;;;;;0.93;0.70;;;25.40;62.20;;;;;;5083241;27;20047;-69
2022/07/20 00:03:29;;;;;;;0.52;0.52;;;25.40;62.50;;;;;;5098681;27;20038;-70
2022/07/20 00:05:54;;;;;;;1.10;0.50;;;25.30;62.30;;;;;;5075773;28;20089;-69
2022/07/20 00:11:23;;;;;;;0.50;0.47;;;25.20;62.60;;;;;;5093504;28;20042;-69
2022/07/20 00:13:58;;;;;;;0.93;0.70;;;25.10;62.80;;;;;;5095587;27;20058;-69
2022/07/20 00:16:26;;;;;;;0.60;0.60;;;25.10;62.80;;;;;;5095682;27;20521;-70
2022/07/20 00:18:52;;;;;;;0.70;0.70;;;25.10;62.80;;;;;;5124415;27;20054;-69
2022/07/20 00:21:18;;;;;;;0.90;0.47;;;25.00;62.90;;;;;;5092655;28;20044;-70
2022/07/20 00:23:44;;;;;;;0.50;0.50;;;25.00;63.10;;;;;;5096544;28;20043;-69
2022/07/20 00:26:10;;;;;;;0.45;0.45;;;24.90;63.20;;;;;;5093908;27;20168;-70
2022/07/20 00:28:36;;;;;;;0.40;0.40;;;24.80;63.30;;;;;;5094559;27;20047;-70
2022/07/20 00:31:02;;;;;;;0.77;0.50;;;24.80;63.30;;;;;;5100000;28;20119;-70
2022/07/20 00:33:28;;;;;;;0.50;0.50;;;24.70;63.50;;;;;;5117511;27;20028;-70
2022/07/20 00:35:54;;;;;;;1.15;0.73;;;24.70;63.60;;;;;;5100261;27;20042;-70
2022/07/20 00:38:19;;;;;;;0.50;0.50;;;24.60;63.60;;;;;;5098616;28;20046;-70
2022/07/20 00:40:45;;;;;;;0.60;0.60;;;24.60;63.90;;;;;;5094193;28;20035;-70
2022/07/20 00:43:11;;;;;;;0.70;0.60;;;24.50;63.90;;;;;;5094015;28;20332;-70
2022/07/20 00:45:36;;;;;;;0.50;0.47;;;24.50;64.00;;;;;;5094183;28;20035;-70
2022/07/20 00:48:02;;;;;;;0.50;0.50;;;24.40;64.00;;;;;;5081266;27;20501;-70
2022/07/20 00:50:28;;;;;;;0.77;0.50;;;24.40;64.20;;;;;;5102037;27;20439;-70
2022/07/20 00:52:54;;;;;;;0.65;0.50;;;24.30;64.30;;;;;;5102925;28;20039;-70
2022/07/20 00:55:20;;;;;;;1.10;0.50;;;24.30;64.40;;;;;;5093481;28;20453;-70
2022/07/20 00:57:46;;;;;;;0.57;0.50;;;24.20;64.40;;;;;;5093925;28;20390;-70
2022/07/20 01:00:13;;;;;;;0.70;0.70;;;24.20;64.50;;;;;;5093720;28;20043;-70
2022/07/20 01:02:39;;;;;;;1.30;0.85;;;24.20;64.70;;;;;;5112267;27;20088;-70
2022/07/20 01:05:15;;;;;;;0.80;0.60;;;24.10;64.60;;;;;;5076658;28;20075;-69
2022/07/20 01:07:46;;;;;;;0.52;0.50;;;24.00;65.40;;;;;;5093524;28;20046;-69
2022/07/20 01:10:13;;;;;;;0.60;0.60;;;24.00;64.90;;;;;;5076515;28;20040;-69
2022/07/20 01:12:43;;;;;;;1.13;0.70;;;23.90;65.40;;;;;;5111471;28;20124;-70
2022/07/20 01:15:09;;;;;;;0.60;0.47;;;23.80;65.70;;;;;;5092968;28;20442;-69
2022/07/20 01:17:35;;;;;;;0.73;0.52;;;23.80;65.60;;;;;;5110581;28;20035;-69
2022/07/20 01:20:01;;;;;;;0.50;0.50;;;23.70;65.90;;;;;;5093142;28;20450;-69
2022/07/20 01:22:27;;;;;;;0.40;0.40;;;23.60;65.80;;;;;;5076965;28;20058;-69
2022/07/20 01:24:52;;;;;;;0.43;0.43;;;23.60;66.20;;;;;;5096959;27;20559;-69
2022/07/20 01:27:18;;;;;;;0.50;0.50;;;23.60;66.40;;;;;;5088955;27;20062;-69
2022/07/20 01:29:44;;;;;;;0.70;0.60;;;23.50;66.40;;;;;;5120785;27;21471;-69
2022/07/20 01:32:10;;;;;;;0.90;0.60;;;23.50;66.60;;;;;;5071906;28;20031;-70
2022/07/20 01:34:35;;;;;;;1.08;0.52;;;23.40;66.80;;;;;;5106491;28;20390;-70
2022/07/20 01:37:01;;;;;;;0.50;0.50;;;23.40;67.00;;;;;;5099077;28;20497;-69
2022/07/20 01:39:27;;;;;;;0.70;0.70;;;23.40;67.00;;;;;;5102350;27;20564;-69
2022/07/20 01:41:53;;;;;;;0.60;0.60;;;23.30;66.80;;;;;;5094762;28;20051;-69
2022/07/20 01:44:22;;;;;;;0.60;0.60;;;23.30;67.00;;;;;;5075034;28;20036;-69
2022/07/20 01:46:49;;;;;;;0.70;0.60;;;23.30;67.00;;;;;;5125047;27;20049;-69
2022/07/20 01:49:16;;;;;;;0.50;0.50;;;23.20;66.80;;;;;;5101346;28;20383;-69
2022/07/20 01:51:43;;;;;;;0.50;0.50;;;23.20;67.30;;;;;;5097696;28;20065;-69
2022/07/20 01:54:08;;;;;;;0.85;0.50;;;23.20;67.40;;;;;;5101578;28;20114;-69
2022/07/20 01:56:34;;;;;;;0.75;0.63;;;23.10;67.50;;;;;;5092069;28;20107;-68
2022/07/20 01:59:00;;;;;;;0.70;0.57;;;23.10;67.10;;;;;;5094379;28;20055;-69
2022/07/20 02:01:25;;;;;;;1.10;0.80;;;23.10;67.40;;;;;;5098197;28;20039;-69
2022/07/20 02:03:51;;;;;;;0.75;0.60;;;23.10;67.50;;;;;;5092177;28;20536;-69
2022/07/20 02:06:17;;;;;;;0.82;0.65;;;23.10;67.40;;;;;;5074759;28;20097;-69
2022/07/20 02:08:42;;;;;;;0.95;0.80;;;23.00;67.40;;;;;;5090983;28;20122;-68
2022/07/20 02:11:08;;;;;;;1.60;0.60;;;23.00;67.30;;;;;;5102179;28;20478;-68
2022/07/20 02:13:36;;;;;;;0.80;0.77;;;23.00;67.50;;;;;;5102207;28;20044;-68
2022/07/20 02:16:14;;;;;;;1.05;0.60;;;23.00;67.60;;;;;;5116553;28;20114;-69
2022/07/20 02:18:41;;;;;;;0.50;0.50;;;22.90;67.80;;;;;;5125810;27;20047;-68
2022/07/20 02:21:07;;;;;;;0.70;0.68;;;22.80;67.80;;;;;;5076253;28;20047;-69
2022/07/20 02:23:32;;;;;;;0.98;0.70;;;22.90;67.70;;;;;;5091451;28;20075;-68
2022/07/20 02:25:58;;;;;;;0.70;0.60;;;22.80;67.60;;;;;;5115140;28;20078;-70
2022/07/20 02:28:24;;;;;;;1.48;0.90;;;22.80;67.70;;;;;;5108124;28;20059;-69
2022/07/20 02:30:49;;;;;;;0.80;0.80;;;22.80;67.70;;;;;;5095490;28;20096;-69
2022/07/20 02:33:15;;;;;;;0.88;0.88;;;22.80;67.60;;;;;;5108676;28;20032;-70
2022/07/20 02:35:41;;;;;;;1.08;0.70;;;22.80;67.40;;;;;;5099259;28;20036;-71
2022/07/20 02:38:06;;;;;;;1.42;0.85;;;22.80;67.90;;;;;;5091467;28;20096;-71
2022/07/20 02:40:32;;;;;;;1.58;0.77;;;22.80;67.80;;;;;;5088909;27;20047;-71
2022/07/20 02:42:58;;;;;;;1.20;0.90;;;22.70;68.00;;;;;;5089745;28;20093;-71
2022/07/20 02:45:23;;;;;;;1.00;0.80;;;22.70;67.70;;;;;;5091915;28;20032;-71
2022/07/20 02:47:49;;;;;;;1.05;0.90;;;22.80;67.90;;;;;;5090722;28;20168;-70
2022/07/20 02:50:15;;;;;;;0.88;0.80;;;22.70;67.90;;;;;;5092020;28;20039;-70
2022/07/20 02:52:42;;;;;;;1.40;0.77;;;22.70;68.00;;;;;;5094928;28;20043;-71
2022/07/20 02:55:08;;;;;;;0.70;0.70;;;22.70;67.90;;;;;;5084054;27;20035;-71
2022/07/20 02:57:34;;;;;;;1.73;1.05;;;22.70;68.10;;;;;;5078407;27;20092;-71
2022/07/20 03:00:01;;;;;;;1.17;0.90;;;22.70;68.10;;;;;;5102144;27;20100;-71
2022/07/20 03:02:27;;;;;;;0.60;0.60;;;22.70;68.00;;;;;;5113062;27;20043;-71
2022/07/20 03:04:52;;;;;;;1.25;0.85;;;22.70;68.30;;;;;;5099203;28;20055;-71
2022/07/20 03:07:18;;;;;;;0.80;0.70;;;22.70;68.20;;;;;;5094824;28;20100;-71
2022/07/20 03:09:44;;;;;;;0.80;0.70;;;22.60;68.20;;;;;;5080645;27;20084;-71
2022/07/20 03:12:10;;;;;;;1.30;0.77;;;22.60;68.30;;;;;;5104823;28;20383;-71
2022/07/20 03:14:35;;;;;;;0.82;0.63;;;22.50;68.30;;;;;;5094766;27;20031;-71
2022/07/20 03:17:01;;;;;;;0.80;0.70;;;22.50;68.70;;;;;;5110882;27;20493;-71
2022/07/20 03:19:27;;;;;;;0.60;0.60;;;22.50;69.00;;;;;;5079438;28;20043;-71
2022/07/20 03:21:52;;;;;;;0.80;0.70;;;22.40;69.40;;;;;;5095471;28;20039;-71
2022/07/20 03:24:18;;;;;;;0.63;0.60;;;22.40;69.00;;;;;;5095565;28;20043;-71
2022/07/20 03:26:44;;;;;;;0.82;0.75;;;22.40;69.30;;;;;;5094934;28;20423;-71
2022/07/20 03:29:09;;;;;;;1.67;0.90;;;22.40;69.30;;;;;;5095085;28;20134;-71
2022/07/20 03:31:35;;;;;;;2.03;0.80;;;22.40;69.10;;;;;;5129349;27;20036;-71
2022/07/20 03:34:01;;;;;;;1.20;0.90;;;22.40;69.30;;;;;;5094916;27;20035;-70
2022/07/20 03:36:26;;;;;;;1.50;0.80;;;22.40;69.10;;;;;;5093832;28;20044;-70
2022/07/20 03:38:52;;;;;;;1.08;0.70;;;22.40;69.40;;;;;;5094901;28;20180;-71
2022/07/20 03:41:18;;;;;;;1.52;1.17;;;22.30;69.20;;;;;;5115523;27;20027;-71
2022/07/20 03:43:44;;;;;;;1.10;1.00;;;22.30;68.90;;;;;;5094920;28;20069;-71
2022/07/20 03:46:11;;;;;;;2.40;0.82;;;22.40;69.30;;;;;;5094621;28;20040;-71
2022/07/20 03:48:39;;;;;;;1.25;0.95;;;22.30;69.30;;;;;;5094660;28;20040;-71
2022/07/20 03:51:04;;;;;;;1.08;0.85;;;22.30;69.40;;;;;;5095040;28;20042;-71
2022/07/20 03:53:30;;;;;;;1.55;0.90;;;22.30;69.60;;;;;;5094707;28;20069;-71
2022/07/20 03:55:56;;;;;;;1.00;0.90;;;22.30;69.50;;;;;;5077402;28;20085;-71
2022/07/20 03:58:21;;;;;;;0.93;0.80;;;22.30;69.30;;;;;;5077773;28;20077;-71
2022/07/20 04:00:47;;;;;;;1.05;0.82;;;22.30;69.30;;;;;;5128555;27;20093;-71
2022/07/20 04:03:13;;;;;;;1.08;0.98;;;22.30;69.20;;;;;;5094665;28;20394;-71
2022/07/20 04:05:39;;;;;;;1.25;0.88;;;22.30;69.50;;;;;;5099823;27;20043;-71
2022/07/20 04:08:08;;;;;;;1.05;0.90;;;22.30;69.40;;;;;;5114023;27;20046;-71
2022/07/20 04:10:35;;;;;;;0.85;0.80;;;22.30;69.40;;;;;;5084905;27;20096;-71
2022/07/20 04:13:05;;;;;;;0.90;0.70;;;22.30;69.20;;;;;;5094230;28;20043;-69
2022/07/20 04:15:31;;;;;;;0.70;0.70;;;22.30;69.40;;;;;;5100120;27;20397;-70
2022/07/20 04:17:58;;;;;;;1.10;0.90;;;22.30;69.40;;;;;;5106670;27;20047;-69
2022/07/20 04:20:23;;;;;;;0.75;0.60;;;22.40;69.20;;;;;;5094231;28;20100;-68
2022/07/20 04:22:49;;;;;;;0.93;0.70;;;22.40;69.60;;;;;;5128271;27;20079;-68
2022/07/20 04:25:15;;;;;;;0.80;0.70;;;22.30;69.50;;;;;;5094321;28;20050;-68
2022/07/20 04:27:42;;;;;;;1.05;0.90;;;22.30;69.80;;;;;;5095443;28;20047;-68
2022/07/20 04:30:09;;;;;;;0.80;0.70;;;22.30;70.20;;;;;;5091118;28;20395;-69
2022/07/20 04:32:34;;;;;;;0.60;0.60;;;22.30;69.90;;;;;;5089721;27;20042;-69
2022/07/20 04:35:00;;;;;;;0.63;0.50;;;22.30;70.10;;;;;;5089275;28;20043;-69
2022/07/20 04:37:26;;;;;;;0.73;0.65;;;22.30;70.30;;;;;;5090318;28;20115;-69
2022/07/20 04:39:51;;;;;;;0.77;0.60;;;22.30;70.50;;;;;;5087884;27;20497;-73
2022/07/20 04:42:17;;;;;;;0.52;0.52;;;22.30;70.60;;;;;;5085709;28;20047;-69
2022/07/20 04:44:43;;;;;;;0.70;0.70;;;22.40;70.80;;;;;;5117992;27;20049;-69
2022/07/20 04:47:08;;;;;;;0.65;0.65;;;22.40;70.80;;;;;;5088698;28;20130;-69
2022/07/20 04:49:34;;;;;;;0.90;0.70;;;22.40;70.80;;;;;;5089825;28;20044;-69
2022/07/20 04:52:00;;;;;;;0.82;0.60;;;22.40;70.80;;;;;;5084991;28;20039;-69
2022/07/20 04:54:25;;;;;;;0.47;0.47;;;22.40;71.00;;;;;;5088486;28;20031;-70
2022/07/20 04:56:52;;;;;;;0.40;0.40;;;22.40;71.30;;;;;;5054970;28;20123;-69
2022/07/20 04:59:17;;;;;;;0.93;0.60;;;22.40;71.60;;;;;;5092301;27;20130;-70
2022/07/20 05:01:43;;;;;;;0.57;0.57;;;22.50;71.20;;;;;;5086128;28;20054;-68
2022/07/20 05:04:09;;;;;;;0.43;0.43;;;22.50;71.50;;;;;;5087558;28;20410;-70
2022/07/20 05:06:35;;;;;;;0.50;0.50;;;22.50;71.30;;;;;;5087874;28;20054;-70
2022/07/20 05:09:00;;;;;;;0.50;0.38;;;22.50;71.40;;;;;;5071076;28;20039;-70
2022/07/20 05:11:29;;;;;;;0.70;0.50;;;22.50;71.70;;;;;;5087011;28;20432;-70
2022/07/20 05:13:55;;;;;;;0.60;0.60;;;22.60;72.00;;;;;;5070666;28;20254;-71
2022/07/20 05:16:21;;;;;;;0.90;0.60;;;22.60;72.10;;;;;;5084897;28;20491;-71
2022/07/20 05:18:46;;;;;;;0.90;0.60;;;22.70;71.80;;;;;;5102129;27;20042;-69
2022/07/20 05:21:12;;;;;;;1.20;0.60;;;22.70;71.90;;;;;;5088014;28;20444;-69
2022/07/20 05:23:38;;;;;;;1.00;0.57;;;22.80;72.30;;;;;;5087701;27;20134;-69
2022/07/20 05:26:04;;;;;;;3.25;1.02;;;22.80;72.30;;;;;;5089808;27;20217;-69
2022/07/20 05:28:29;;;;;;;1.25;0.88;;;22.90;72.70;;;;;;5084553;27;20048;-69
2022/07/20 05:30:55;;;;;;;0.60;0.60;;;23.00;72.90;;;;;;5087944;28;20073;-69
2022/07/20 05:33:21;;;;;;;0.60;0.50;;;22.90;73.10;;;;;;5086728;28;20039;-69
2022/07/20 05:35:49;;;;;;;0.47;0.47;;;23.00;73.30;;;;;;5085879;28;20036;-69
2022/07/20 05:38:16;;;;;;;0.40;0.40;;;23.00;73.70;;;;;;5088913;27;20036;-69
2022/07/20 05:40:41;;;;;;;0.45;0.40;;;23.00;74.10;;;;;;5070756;28;20039;-68
2022/07/20 05:43:07;;;;;;;0.40;0.40;;;23.10;74.10;;;;;;5120778;27;20517;-68
2022/07/20 05:45:33;;;;;;;0.50;0.40;;;23.10;74.40;;;;;;5089235;28;20031;-68
2022/07/20 05:47:59;;;;;;;0.30;0.30;;;23.20;74.40;;;;;;5088191;28;20070;-68
2022/07/20 05:50:25;;;;;;;0.28;0.20;;;23.30;74.30;;;;;;5088133;28;20146;-68
2022/07/20 05:52:51;;;;;;;0.30;0.30;;;23.40;74.30;;;;;;5088791;27;20072;-69
2022/07/20 05:55:17;;;;;;;0.30;0.30;;;23.50;74.20;;;;;;5105554;28;20050;-68
2022/07/20 05:57:43;;;;;;;0.50;0.32;;;23.60;74.30;;;;;;5119879;27;20027;-68
2022/07/20 06:00:09;;;;;;;0.50;0.38;;;23.60;74.10;;;;;;5089544;28;20043;-69
2022/07/20 06:02:35;;;;;;;0.50;0.50;;;23.70;73.80;;;;;;5088261;28;20039;-70
2022/07/20 06:05:01;;;;;;;0.50;0.50;;;23.90;74.30;;;;;;5120348;27;20047;-70
2022/07/20 06:07:26;;;;;;;0.57;0.40;;;23.90;73.70;;;;;;5088296;28;20047;-70
2022/07/20 06:09:52;;;;;;;0.40;0.40;;;24.10;73.70;;;;;;5072064;28;20126;-70
2022/07/20 06:12:18;;;;;;;0.40;0.40;;;24.20;73.60;;;;;;5088214;28;20478;-70
2022/07/20 06:14:43;;;;;;;0.50;0.40;;;24.30;73.30;;;;;;5086000;28;20035;-70
2022/07/20 06:17:11;;;;;;;0.35;0.35;;;24.40;73.10;;;;;;5071665;28;20035;-70
2022/07/20 06:19:37;;;;;;;0.38;0.38;;;24.50;73.00;;;;;;5087040;28;20042;-70
2022/07/20 06:22:03;;;;;;;0.43;0.43;;;24.70;72.30;;;;;;5088799;28;20126;-70
2022/07/20 06:24:28;;;;;;;0.50;0.50;;;24.70;72.40;;;;;;5088458;28;20167;-70
2022/07/20 06:26:54;;;;;;;0.55;0.50;;;24.90;72.50;;;;;;5088215;28;20126;-70
2022/07/20 06:29:20;;;;;;;0.43;0.43;;;25.10;72.60;;;;;;5071365;28;20100;-70
2022/07/20 06:31:46;;;;;;;0.50;0.50;;;25.30;71.70;;;;;;5089750;28;20138;-70
2022/07/20 06:34:13;;;;;;;0.40;0.40;;;25.30;72.10;;;;;;5074660;28;20061;-70
2022/07/20 06:36:38;;;;;;;0.50;0.40;;;25.40;72.50;;;;;;5091845;28;20084;-70
2022/07/20 06:39:04;;;;;;;0.40;0.40;;;25.40;73.00;;;;;;5124477;27;20722;-70
2022/07/20 06:41:30;;;;;;;0.57;0.55;;;25.50;73.00;;;;;;5088476;28;20043;-77
2022/07/20 06:43:56;;;;;;;1.45;0.50;;;25.60;73.30;;;;;;5074277;27;20517;-76
2022/07/20 06:46:22;;;;;;;0.50;0.50;;;25.60;73.50;;;;;;5075023;28;20441;-77
2022/07/20 06:48:47;;;;;;;1.10;0.80;;;25.60;74.00;;;;;;5074728;27;21052;-76
2022/07/20 06:51:13;;;;;;;1.02;0.60;;;25.70;74.00;;;;;;5089103;28;20096;-77
2022/07/20 06:53:39;;;;;;;0.88;0.65;;;25.70;74.60;;;;;;5072258;28;20039;-76
2022/07/20 06:56:05;;;;;;;0.70;0.70;;;25.80;74.20;;;;;;5091071;28;20124;-76
2022/07/20 06:58:30;;;;;;;1.02;0.60;;;25.90;73.90;;;;;;5107204;27;20743;-77
2022/07/20 07:00:56;;;;;;;0.60;0.60;;;26.10;74.40;;;;;;5090470;27;20050;-77
2022/07/20 07:03:21;;;;;;;0.63;0.57;;;26.20;74.00;;;;;;5090064;28;20048;-76
2022/07/20 07:05:47;;;;;;;0.90;0.80;;;26.30;73.90;;;;;;5105494;27;20039;-76
2022/07/20 07:08:13;;;;;;;0.88;0.80;;;26.40;71.80;;;;;;5090584;28;20035;-76
2022/07/20 07:10:39;;;;;;;1.15;0.80;;;26.50;70.60;;;;;;5090930;28;20044;-77
2022/07/20 07:13:04;;;;;;;1.48;1.00;;;26.60;71.10;;;;;;5091312;28;20032;-76
2022/07/20 07:15:30;;;;;;;1.55;1.27;;;26.70;71.50;;;;;;5090283;27;20032;-76
2022/07/20 07:17:56;;;;;;;1.10;1.00;;;26.80;70.80;;;;;;5090227;27;20451;-76
2022/07/20 07:20:22;;;;;;;1.92;1.20;;;26.90;70.90;;;;;;5092373;28;20486;-76
2022/07/20 07:22:47;;;;;;;1.20;1.00;;;27.10;70.80;;;;;;5088441;28;20606;-77
2022/07/20 07:25:13;;;;;;;1.60;1.23;;;27.20;70.50;;;;;;5074168;27;20038;-77
2022/07/20 07:27:39;;;;;;;1.10;1.00;;;27.20;70.50;;;;;;5090798;28;20074;-77
2022/07/20 07:30:05;;;;;;;1.20;1.10;;;27.40;70.60;;;;;;5074660;27;20160;-68
2022/07/20 07:32:31;;;;;;;0.90;0.85;;;27.30;71.10;;;;;;5086742;28;20043;-68
2022/07/20 07:34:56;;;;;;;1.70;1.10;;;27.40;71.30;;;;;;5074273;27;20051;-70
2022/07/20 07:37:22;;;;;;;1.00;0.90;;;27.50;71.00;;;;;;5093849;28;20047;-70
2022/07/20 07:39:49;;;;;;;0.82;0.80;;;27.70;71.70;;;;;;5094668;28;20500;-70
2022/07/20 07:42:14;;;;;;;1.17;0.80;;;27.80;71.50;;;;;;5093961;28;20046;-70
2022/07/20 07:44:40;;;;;;;2.05;1.00;;;27.80;72.00;;;;;;5095246;28;20458;-70
2022/07/20 07:47:06;;;;;;;1.98;1.50;;;27.90;72.20;;;;;;5129557;27;20043;-70
2022/07/20 07:49:32;;;;;;;3.03;1.60;;;27.90;72.60;;;;;;5094843;28;20139;-70
2022/07/20 07:51:57;;;;;;;2.38;1.50;;;28.00;73.00;;;;;;5095257;28;20040;-70
2022/07/20 07:54:23;;;;;;;3.42;1.90;;;28.20;73.80;;;;;;5129432;27;20047;-70
2022/07/20 07:56:49;;;;;;;2.92;1.95;;;28.20;73.20;;;;;;5094941;28;20062;-70
2022/07/20 07:59:15;;;;;;;4.85;3.13;;;28.10;73.50;;;;;;5113344;28;20077;-69
2022/07/20 08:01:41;;;;;;;5.25;2.83;;;28.00;73.20;;;;;;5094970;28;20089;-70
2022/07/20 08:04:07;;;;;;;3.60;2.30;;;27.90;73.90;;;;;;5112834;28;20052;-70
2022/07/20 08:06:33;;;;;;;2.88;2.40;;;28.10;74.40;;;;;;5128981;27;20081;-70
2022/07/20 08:08:59;;;;;;;4.10;2.65;;;28.20;74.90;;;;;;5095026;28;20048;-70
2022/07/20 08:11:24;;;;;;;3.00;2.42;;;28.20;75.30;;;;;;5112981;28;20039;-69
2022/07/20 08:13:50;;;;;;;4.32;3.13;;;28.40;76.10;;;;;;5094904;28;20058;-70
2022/07/20 08:16:16;;;;;;;4.93;3.22;;;28.40;76.40;;;;;;5077979;28;20126;-70
2022/07/20 08:18:41;;;;;;;3.45;3.00;;;28.50;77.20;;;;;;5077247;28;20583;-70
2022/07/20 08:21:07;;;;;;;5.38;4.00;;;28.60;77.20;;;;;;5077872;28;20055;-70
2022/07/20 08:23:33;;;;;;;3.83;3.38;;;28.50;77.90;;;;;;5094613;28;20576;-70
2022/07/20 08:25:58;;;;;;;4.95;3.90;;;28.70;78.30;;;;;;5094333;28;20043;-70
2022/07/20 08:28:24;;;;;;;5.70;3.80;;;28.70;77.90;;;;;;5094191;28;20063;-70
2022/07/20 08:30:52;;;;;;;4.20;3.80;;;28.80;78.30;;;;;;5094423;28;20043;-70
2022/07/20 08:33:18;;;;;;;5.05;3.72;;;28.90;78.40;;;;;;5077279;28;20040;-70
2022/07/20 08:35:44;;;;;;;4.65;3.50;;;29.10;78.70;;;;;;5094264;28;20084;-70
2022/07/20 08:38:10;;;;;;;5.40;4.03;;;29.20;79.10;;;;;;5128524;27;20039;-70
2022/07/20 08:40:36;;;;;;;4.45;3.72;;;29.40;80.10;;;;;;5128362;27;20047;-70
2022/07/20 08:43:03;;;;;;;7.05;5.00;;;29.50;80.20;;;;;;5077579;28;20137;-70
2022/07/20 08:45:29;;;;;;;8.55;5.15;;;29.50;80.00;;;;;;5128191;27;20075;-70
2022/07/20 08:48:01;;;;;;;6.55;5.28;;;29.40;81.00;;;;;;5094280;28;20136;-70
2022/07/20 08:50:30;;;;;;;7.47;5.88;;;29.40;81.90;;;;;;5093235;28;20679;-70
2022/07/20 08:52:57;;;;;;;7.03;5.63;;;29.30;81.90;;;;;;5093575;28;20079;-70
2022/07/20 08:55:23;;;;;;;6.20;5.53;;;29.20;83.50;;;;;;5093734;28;20040;-70
2022/07/20 08:57:49;;;;;;;9.85;6.50;;;29.30;84.60;;;;;;5093921;28;20035;-71
2022/07/20 09:00:15;;;;;;;9.80;6.32;;;29.10;85.10;;;;;;5093486;28;20062;-70
2022/07/20 09:03:01;;;;;;;6.10;5.22;;;29.20;86.00;;;;;;5093886;28;20096;-70
2022/07/20 09:05:28;;;;;;;8.85;6.15;;;29.40;85.90;;;;;;5073654;28;20054;-70
2022/07/20 09:07:56;;;;;;;7.20;6.07;;;29.40;86.50;;;;;;5107401;28;20043;-71
2022/07/20 09:10:32;;;;;;;8.75;6.25;;;29.40;87.40;;;;;;5107205;28;20115;-70
2022/07/20 09:13:03;;;;;;;9.55;6.10;;;29.60;87.90;;;;;;5116090;27;20508;-70
2022/07/20 09:15:33;;;;;;;6.25;5.65;;;29.80;88.10;;;;;;5091599;28;20579;-68
2022/07/20 09:18:04;;;;;;;7.53;6.32;;;29.90;88.40;;;;;;5109381;28;20035;-68
2022/07/20 09:20:32;;;;;;;9.48;7.03;;;30.00;88.40;;;;;;5127140;27;20504;-68
2022/07/20 09:23:06;;;;;;;9.80;6.97;;;30.00;88.30;;;;;;5092070;28;20056;-67
2022/07/20 09:25:32;;;;;;;10.95;8.05;;;29.90;88.70;;;;;;5105382;27;20199;-66
2022/07/20 09:27:58;;;;;;;11.85;9.00;;;29.80;88.00;;;;;;5091655;27;20051;-68
2022/07/20 09:30:25;;;;;;;13.70;10.02;;;29.60;89.30;;;;;;5078625;28;20097;-68
2022/07/20 09:32:58;;;;;;;13.65;10.30;;;29.40;89.90;;;;;;5079873;27;20036;-68
2022/07/20 09:35:27;;;;;;;13.13;10.35;;;29.30;90.20;;;;;;5091054;28;20042;-67
2022/07/20 09:37:55;;;;;;;10.60;9.50;;;29.30;90.50;;;;;;5089178;28;20035;-66
2022/07/20 09:40:21;;;;;;;11.32;9.57;;;29.20;90.60;;;;;;5112269;27;20044;-67
2022/07/20 09:42:47;;;;;;;12.95;10.02;;;29.30;90.60;;;;;;5094056;28;20113;-68
2022/07/20 09:45:19;;;;;;;11.20;8.85;;;29.20;91.10;;;;;;5090130;28;20065;-68
2022/07/20 09:48:09;;;;;;;11.20;10.00;;;29.40;91.00;;;;;;5093480;28;20104;-68
2022/07/20 09:50:44;;;;;;;11.60;9.73;;;29.30;91.30;;;;;;5091884;27;20105;-66
2022/07/20 09:53:11;;;;;;;11.10;9.68;;;29.40;91.10;;;;;;5119366;27;20173;-66
2022/07/20 09:55:38;;;;;;;11.50;9.02;;;29.40;90.90;;;;;;5095305;27;20390;-67
2022/07/20 09:58:05;;;;;;;12.88;9.48;;;29.50;91.10;;;;;;5090236;28;20036;-75
2022/07/20 10:00:31;;;;;;;11.52;8.63;;;29.30;90.60;;;;;;5089870;28;20031;-76
2022/07/20 10:02:59;;;;;;;8.85;7.95;;;29.40;90.50;;;;;;5072775;27;20041;-70
2022/07/20 10:05:31;;;;;;;9.82;8.27;;;29.60;90.40;;;;;;5092596;28;20355;-70
2022/07/20 10:08:01;;;;;;;11.00;9.15;;;29.50;90.80;;;;;;5089585;28;20044;-70
2022/07/20 10:10:27;;;;;;;10.25;8.23;;;29.40;90.30;;;;;;5091068;28;20502;-69
2022/07/20 10:12:54;;;;;;;11.15;8.70;;;29.80;91.00;;;;;;5120930;28;20075;-70
2022/07/20 10:15:27;;;;;;;10.70;9.55;;;29.80;91.20;;;;;;5108109;28;20423;-70
2022/07/20 10:17:53;;;;;;;10.73;8.70;;;29.80;90.30;;;;;;5123124;27;20096;-70
2022/07/20 10:20:34;;;;;;;11.38;8.80;;;29.90;89.20;;;;;;5096089;28;20054;-70
2022/07/20 10:23:15;;;;;;;8.45;7.55;;;29.80;85.70;;;;;;5096460;28;20047;-69
2022/07/20 10:25:45;;;;;;;10.50;7.50;;;29.90;86.50;;;;;;5100718;28;20039;-70
2022/07/20 10:28:34;;;;;;;10.05;7.90;;;29.90;85.60;;;;;;5098806;28;20070;-69
2022/07/20 10:31:05;;;;;;;13.10;9.13;;;29.80;85.40;;;;;;5091281;28;20376;-70
2022/07/20 10:33:37;;;;;;;9.35;8.00;;;29.70;84.90;;;;;;5090354;28;20040;-69
2022/07/20 10:36:44;;;;;;;13.52;9.07;;;29.80;83.80;;;;;;5097282;28;20087;-70
2022/07/20 10:39:45;;;;;;;10.73;8.75;;;29.60;83.30;;;;;;5087622;28;20062;-70
2022/07/20 10:42:30;;;;;;;9.57;7.70;;;29.50;83.40;;;;;;5127411;27;20031;-70
2022/07/20 10:45:11;;;;;;;7.55;6.78;;;29.80;84.20;;;;;;5100753;28;20043;-70
2022/07/20 10:48:11;;;;;;;8.15;6.55;;;29.90;83.40;;;;;;5094856;28;20081;-70
2022/07/20 10:50:49;;;;;;;10.60;7.65;;;30.10;83.00;;;;;;5125524;28;20036;-68
2022/07/20 10:53:14;;;;;;;7.00;6.30;;;29.70;82.00;;;;;;5107375;28;20043;-68
2022/07/20 10:55:52;;;;;;;7.57;5.70;;;29.80;81.60;;;;;;5125153;27;20046;-68
2022/07/20 10:58:17;;;;;;;8.18;5.88;;;29.60;79.90;;;;;;5111770;28;20051;-68
2022/07/20 11:00:46;;;;;;;6.05;5.30;;;29.40;80.00;;;;;;5091953;28;20104;-67
2022/07/20 11:03:26;;;;;;;7.47;5.40;;;29.60;81.50;;;;;;5134199;27;20046;-68
2022/07/20 11:06:10;;;;;;;7.05;4.88;;;29.60;81.30;;;;;;5097287;28;20494;-67
2022/07/20 11:08:37;;;;;;;6.60;5.15;;;29.90;81.70;;;;;;5125187;28;20035;-68
2022/07/20 11:11:04;;;;;;;6.35;5.00;;;29.90;81.40;;;;;;5091609;27;20057;-67
2022/07/20 11:13:29;;;;;;;6.50;5.05;;;29.90;80.70;;;;;;5092144;28;20039;-67
2022/07/20 11:15:59;;;;;;;7.88;5.65;;;30.00;80.00;;;;;;5096164;27;20200;-68
2022/07/20 11:18:28;;;;;;;6.55;5.25;;;30.00;79.40;;;;;;5120809;27;20480;-68
2022/07/20 11:20:56;;;;;;;5.50;4.40;;;29.90;80.40;;;;;;5105766;27;20047;-68
2022/07/20 11:23:25;;;;;;;7.82;5.63;;;30.10;79.00;;;;;;5101740;27;20035;-70
2022/07/20 11:25:59;;;;;;;7.78;5.18;;;29.80;78.30;;;;;;5090972;27;20071;-70
2022/07/20 11:28:31;;;;;;;7.25;5.38;;;29.90;78.90;;;;;;5080707;28;20053;-70
2022/07/20 11:30:58;;;;;;;5.78;4.90;;;29.90;79.20;;;;;;5065771;28;20531;-70
2022/07/20 11:33:31;;;;;;;5.22;4.40;;;30.10;79.70;;;;;;5068531;28;20043;-70
2022/07/20 11:36:01;;;;;;;6.65;4.75;;;30.40;80.30;;;;;;5067654;28;20040;-70
2022/07/20 11:38:43;;;;;;;5.30;4.40;;;30.40;78.90;;;;;;5069068;28;20131;-70
2022/07/20 11:41:12;;;;;;;7.05;4.38;;;30.70;80.90;;;;;;5053239;28;20124;-69
2022/07/20 11:43:38;;;;;;;6.93;5.05;;;30.80;79.10;;;;;;5067423;28;20045;-70
2022/07/20 11:46:25;;;;;;;7.70;5.00;;;30.70;79.30;;;;;;5098796;27;20079;-69
2022/07/20 11:48:59;;;;;;;7.38;5.50;;;30.50;78.50;;;;;;5064702;28;21988;-69
2022/07/20 11:51:29;;;;;;;5.60;5.10;;;30.30;79.20;;;;;;5067750;28;20407;-69
2022/07/20 11:53:56;;;;;;;6.03;5.18;;;30.50;80.50;;;;;;5068778;28;20037;-69
2022/07/20 11:56:24;;;;;;;7.28;4.93;;;30.70;80.40;;;;;;5066798;28;20470;-69
2022/07/20 11:58:52;;;;;;;6.00;4.70;;;30.70;79.00;;;;;;5065866;28;20036;-70
2022/07/20 12:01:27;;;;;;;5.65;4.50;;;30.60;77.80;;;;;;5067062;28;20044;-69
2022/07/20 12:04:01;;;;;;;5.30;4.10;;;30.40;76.80;;;;;;5081499;28;20044;-69
2022/07/20 12:06:30;;;;;;;5.82;4.10;;;30.40;77.20;;;;;;5099018;28;20200;-72
2022/07/20 12:09:16;;;;;;;5.55;4.00;;;30.20;77.20;;;;;;5064639;28;20041;-72
2022/07/20 12:12:01;;;;;;;6.43;4.80;;;30.20;77.20;;;;;;5062423;28;20107;-72
2022/07/20 12:14:42;;;;;;;4.67;3.73;;;30.20;77.10;;;;;;5066672;28;20094;-70
2022/07/20 12:17:19;;;;;;;4.32;3.78;;;30.00;76.10;;;;;;5067386;28;20060;-69
2022/07/20 12:19:47;;;;;;;6.28;3.90;;;30.30;77.00;;;;;;5087686;28;20051;-70
2022/07/20 12:22:18;;;;;;;6.53;4.10;;;30.10;76.00;;;;;;5099268;27;20525;-69
2022/07/20 12:25:07;;;;;;;4.72;3.90;;;30.30;75.20;;;;;;5066906;28;20514;-68
2022/07/20 12:27:36;;;;;;;6.25;4.22;;;30.50;75.40;;;;;;5085988;27;20154;-68
2022/07/20 12:30:29;;;;;;;6.07;4.15;;;30.40;75.80;;;;;;5096598;28;20047;-72
2022/07/20 12:33:13;;;;;;;3.88;3.47;;;30.50;76.90;;;;;;5118130;27;20054;-72
2022/07/20 12:35:44;;;;;;;4.40;3.80;;;30.70;77.40;;;;;;5093963;28;20052;-73
2022/07/20 12:38:11;;;;;;;6.00;4.10;;;30.80;75.00;;;;;;5097632;27;20363;-72
2022/07/20 12:40:46;;;;;;;4.60;3.78;;;30.70;75.60;;;;;;5091509;28;20044;-73
2022/07/20 12:43:32;;;;;;;4.70;4.20;;;30.80;75.20;;;;;;5125388;27;20043;-73
2022/07/20 12:46:01;;;;;;;;;;;30.70;75.20;;;;;;5097764;27;20116;-73
2022/07/20 12:48:27;;;;;;;5.40;4.22;;;30.90;75.30;;;;;;5092644;28;19969;-72
2022/07/20 12:50:53;;;;;;;6.18;4.57;;;30.90;74.20;;;;;;5098687;27;20050;-72
2022/07/20 12:53:18;;;;;;;4.75;4.25;;;30.50;73.50;;;;;;5092797;27;20047;-73